Wahpeton, North Dakota
Current Conditions -  °F | °C
As of 11:15 AM on Thursday 18 Dec 2014 (Local Time) from KBWP Reporting Station
Overcast Overcast  
Wind Chill:   Ceiling: 7000
Heat Index: 14°   Visibility: 10mi
Dew Point: 10°   Wind: 5mph
Humidity: 86%   Direction: 150°SSE
Pressure: 30.26"   Gusts: NA
Location:  46.26°N, 96.6°W
Report Text: KBWP 181715Z AUTO 15004KT 10SM OVC070 M10/M12 A3026 RMK AO1
Loading
Personal Weather Stations






























Interactive Weather Map New forecast layout! Learn more

10-Day Weather Forecast

Advertisements
Track Severe Weather on mobile